West Falls, New York
Current Conditions -  °F | °C
As of 5:54 AM on Thursday 23 Oct 2014 (Local Time) from KBUF Reporting Station
Clear Clear  
Wind Chill: 38°   Ceiling: Unl
Heat Index: 43°   Visibility: 10mi
Dew Point: 39°   Wind: 8mph
Humidity: 86%   Direction: 330°NNW
Pressure: 30.14"   Gusts: NA
Location:  42.7°N, 78.68°W
Report Text: KBUF 230954Z 33007KT 10SM CLR 06/04 A3014 RMK AO2 SLP211 T00610039
Loading
Personal Weather Stations






























Interactive Weather Map
Tropical Storm Tracking
New forecast layout! Learn more

10-Day Weather Forecast

Advertisements
Track Severe Weather on mobile